createdAt,value
2023-02-11T00:00:57.959Z,1012.62
2023-02-11T00:01:57.973Z,1012.58
2023-02-11T00:02:57.922Z,1012.50
2023-02-11T00:03:57.893Z,1012.44
2023-02-11T00:04:57.942Z,1012.50
2023-02-11T00:05:57.893Z,1012.40
2023-02-11T00:06:57.858Z,1012.51
2023-02-11T00:07:57.853Z,1012.52
2023-02-11T00:08:57.851Z,1012.46
2023-02-11T00:09:57.837Z,1012.44
2023-02-11T00:10:57.861Z,1012.46
2023-02-11T00:11:57.814Z,1012.34
2023-02-11T00:12:57.790Z,1012.37
2023-02-11T00:13:57.778Z,1012.43
2023-02-11T00:14:57.784Z,1012.31
2023-02-11T00:15:57.821Z,1012.34
2023-02-11T00:16:57.869Z,1012.26
2023-02-11T00:17:57.800Z,1012.28
2023-02-11T00:18:57.757Z,1012.24
2023-02-11T00:19:57.728Z,1012.22
2023-02-11T00:20:57.772Z,1012.25
2023-02-11T00:21:57.708Z,1012.23
2023-02-11T00:22:57.709Z,1012.23
2023-02-11T00:23:57.733Z,1012.15
2023-02-11T00:24:57.672Z,1012.12
2023-02-11T00:25:57.668Z,1012.16
2023-02-11T00:26:57.688Z,1012.07
2023-02-11T00:27:57.865Z,1011.99
2023-02-11T00:28:57.632Z,1012.01
2023-02-11T00:29:57.653Z,1012.03
2023-02-11T00:30:57.727Z,1011.95
2023-02-11T00:31:57.726Z,1011.99
2023-02-11T00:32:58.628Z,1011.85
2023-02-11T00:33:57.600Z,1011.93
2023-02-11T00:34:57.621Z,1011.89
2023-02-11T00:35:57.600Z,1011.85
2023-02-11T00:36:57.598Z,1011.84
2023-02-11T00:37:57.582Z,1011.85
2023-02-11T00:38:57.599Z,1011.98
2023-02-11T00:39:57.551Z,1012.00
2023-02-11T00:40:57.561Z,1011.94
2023-02-11T00:41:57.559Z,1011.92
2023-02-11T00:42:57.524Z,1011.96
2023-02-11T00:43:57.576Z,1011.87
2023-02-11T00:44:57.523Z,1011.89
2023-02-11T00:45:57.522Z,1011.91
2023-02-11T00:46:57.489Z,1011.88
2023-02-11T00:47:57.539Z,1011.83
2023-02-11T00:48:57.511Z,1011.86
2023-02-11T00:49:57.468Z,1011.89
2023-02-11T00:50:57.498Z,1011.87
2023-02-11T00:51:57.464Z,1011.89
2023-02-11T00:52:57.459Z,1011.84
2023-02-11T00:53:57.436Z,1011.76
2023-02-11T00:54:57.391Z,1011.67
2023-02-11T00:55:57.401Z,1011.65
2023-02-11T00:56:57.395Z,1011.70
2023-02-11T00:57:58.468Z,1011.68
2023-02-11T00:58:57.360Z,1011.66
2023-02-11T00:59:57.334Z,1011.64
2023-02-11T01:00:57.377Z,1011.54
2023-02-11T01:01:57.345Z,1011.57
2023-02-11T01:02:57.326Z,1011.55
2023-02-11T01:03:58.346Z,1011.60
2023-02-11T01:04:57.343Z,1011.57
2023-02-11T01:05:57.285Z,1011.58
2023-02-11T01:06:57.323Z,1011.61
2023-02-11T01:07:57.242Z,1011.68
2023-02-11T01:08:57.316Z,1011.70
2023-02-11T01:09:57.258Z,1011.64
2023-02-11T01:10:57.236Z,1011.60
2023-02-11T01:11:57.247Z,1011.58
2023-02-11T01:12:57.228Z,1011.66
2023-02-11T01:13:57.283Z,1011.59
2023-02-11T01:14:57.223Z,1011.64
2023-02-11T01:15:57.377Z,1011.63
2023-02-11T01:16:57.217Z,1011.58
2023-02-11T01:17:57.171Z,1011.51
2023-02-11T01:18:57.204Z,1011.58
2023-02-11T01:19:57.123Z,1011.58
2023-02-11T01:20:57.236Z,1011.59
2023-02-11T01:21:57.162Z,1011.65
2023-02-11T01:22:57.212Z,1011.66
2023-02-11T01:23:57.096Z,1011.61
2023-02-11T01:24:57.129Z,1011.62
2023-02-11T01:25:57.115Z,1011.63
2023-02-11T01:26:57.121Z,1011.69
2023-02-11T01:27:57.920Z,1011.66
2023-02-11T01:28:57.061Z,1011.63
2023-02-11T01:29:57.062Z,1011.64
2023-02-11T01:30:57.107Z,1011.63
2023-02-11T01:31:57.115Z,1011.71
2023-02-11T01:32:57.068Z,1011.81
2023-02-11T01:33:57.031Z,1011.75
2023-02-11T01:34:57.042Z,1011.77
2023-02-11T01:35:57.011Z,1011.81
2023-02-11T01:36:57.100Z,1011.75
2023-02-11T01:37:56.990Z,1011.69
2023-02-11T01:38:57.061Z,1011.68
2023-02-11T01:39:57.006Z,1011.72
2023-02-11T01:40:56.995Z,1011.73
2023-02-11T01:41:56.978Z,1011.72
2023-02-11T01:42:56.922Z,1011.77
2023-02-11T01:43:56.944Z,1011.85
2023-02-11T01:44:56.951Z,1011.78
2023-02-11T01:45:57.133Z,1011.85
2023-02-11T01:46:56.955Z,1011.90
2023-02-11T01:47:56.886Z,1011.96
2023-02-11T01:48:56.950Z,1011.93
2023-02-11T01:49:57.897Z,1012.00
2023-02-11T01:50:56.964Z,1011.89
2023-02-11T01:51:56.900Z,1011.97
2023-02-11T01:52:56.896Z,1012.00
2023-02-11T01:53:56.854Z,1011.95
2023-02-11T01:57:06.569Z,1011.94
2023-02-11T01:58:06.518Z,1011.87
2023-02-11T01:59:06.516Z,1011.81
2023-02-11T02:00:06.632Z,1011.78
2023-02-11T02:01:06.425Z,1011.77
2023-02-11T02:02:07.743Z,1011.69
2023-02-11T02:03:08.046Z,1011.81
2023-02-11T02:04:07.594Z,1011.78
2023-02-11T02:05:07.643Z,1011.75
2023-02-11T02:06:07.665Z,1011.75
2023-02-11T02:07:07.631Z,1011.71
2023-02-11T02:08:07.569Z,1011.76
2023-02-11T02:09:07.535Z,1011.87
2023-02-11T02:10:07.645Z,1011.86
2023-02-11T02:11:07.591Z,1011.82
2023-02-11T02:12:07.541Z,1011.85
2023-02-11T02:13:07.507Z,1011.84
2023-02-11T02:14:07.478Z,1011.79
2023-02-11T02:15:07.525Z,1011.87
2023-02-11T02:16:09.809Z,1011.78
2023-02-11T02:17:08.734Z,1011.72
2023-02-11T02:18:08.183Z,1011.66
2023-02-11T02:19:07.392Z,1011.77
2023-02-11T02:20:08.296Z,1011.76
2023-02-11T02:21:07.485Z,1011.73
2023-02-11T02:22:07.450Z,1011.67
2023-02-11T02:23:07.379Z,1011.60
2023-02-11T02:24:07.399Z,1011.63
2023-02-11T02:25:07.392Z,1011.65
2023-02-11T02:26:07.311Z,1011.54
2023-02-11T02:27:07.391Z,1011.58
2023-02-11T02:28:07.348Z,1011.46
2023-02-11T02:29:07.362Z,1011.42
2023-02-11T02:30:07.341Z,1011.38
2023-02-11T02:31:07.447Z,1011.36
2023-02-11T02:32:07.320Z,1011.31
2023-02-11T02:33:21.645Z,1011.30
2023-02-11T02:34:09.280Z,1011.30
2023-02-11T02:35:07.230Z,1011.26
2023-02-11T02:36:07.275Z,1011.16
2023-02-11T02:37:07.280Z,1011.19
2023-02-11T02:38:07.180Z,1011.21
2023-02-11T02:39:07.218Z,1011.23
2023-02-11T02:40:07.235Z,1011.21
2023-02-11T02:41:07.190Z,1011.13
2023-02-11T02:42:07.196Z,1011.24
2023-02-11T02:43:07.224Z,1011.32
2023-02-11T02:44:07.187Z,1011.26
2023-02-11T02:45:07.230Z,1011.25
2023-02-11T02:46:07.145Z,1011.28
2023-02-11T02:47:07.129Z,1011.31
2023-02-11T02:48:07.173Z,1011.29
2023-02-11T02:49:07.112Z,1011.24
2023-02-11T02:50:07.139Z,1011.24
2023-02-11T02:51:07.086Z,1011.22
2023-02-11T02:52:07.244Z,1011.17
2023-02-11T02:53:07.149Z,1011.18
2023-02-11T02:54:07.046Z,1011.13
2023-02-11T02:55:07.088Z,1011.20
2023-02-11T02:56:07.143Z,1011.23
2023-02-11T02:57:07.135Z,1011.26
2023-02-11T02:58:07.067Z,1011.34
2023-02-11T02:59:07.030Z,1011.31
2023-02-11T03:00:07.056Z,1011.33
2023-02-11T03:01:07.233Z,1011.35
2023-02-11T03:02:07.017Z,1011.34
2023-02-11T03:03:07.086Z,1011.33
2023-02-11T03:04:07.120Z,1011.25
2023-02-11T03:05:06.983Z,1011.29
2023-02-11T03:06:07.024Z,1011.22
2023-02-11T03:07:06.974Z,1011.23
2023-02-11T03:08:07.000Z,1011.26
2023-02-11T03:09:09.010Z,1011.14
2023-02-11T03:10:06.920Z,1011.09
2023-02-11T03:11:07.018Z,1011.15
2023-02-11T03:12:06.904Z,1011.09
2023-02-11T03:13:06.887Z,1011.13
2023-02-11T03:14:06.962Z,1011.16
2023-02-11T03:15:07.078Z,1011.20
2023-02-11T03:16:06.943Z,1011.22
2023-02-11T03:17:06.909Z,1011.26
2023-02-11T03:18:06.876Z,1011.15
2023-02-11T03:46:53.785Z,1010.85
2023-02-11T03:47:55.032Z,1010.77
2023-02-11T03:48:54.981Z,1010.79
2023-02-11T03:49:54.960Z,1010.75
2023-02-11T03:50:54.966Z,1010.72
2023-02-11T03:51:54.929Z,1010.74
2023-02-11T03:52:55.989Z,1010.81
2023-02-11T03:53:54.990Z,1010.77
2023-02-11T03:54:54.920Z,1010.74
2023-02-11T03:55:56.659Z,1010.72
2023-02-11T03:56:54.892Z,1010.72
2023-02-11T03:57:54.903Z,1010.68
2023-02-11T03:58:54.979Z,1010.67
2023-02-11T03:59:54.878Z,1010.63
2023-02-11T04:00:54.856Z,1010.66
2023-02-11T04:01:54.845Z,1010.59
2023-02-11T04:02:55.024Z,1010.71
2023-02-11T04:03:55.000Z,1010.69
2023-02-11T04:04:54.930Z,1010.76
2023-02-11T04:05:54.797Z,1010.73
2023-02-11T04:06:54.771Z,1010.75
2023-02-11T04:07:54.835Z,1010.74
2023-02-11T04:08:54.898Z,1010.69
2023-02-11T04:09:54.812Z,1010.75
2023-02-11T04:10:54.847Z,1010.69
2023-02-11T04:11:54.821Z,1010.65
2023-02-11T04:12:54.768Z,1010.60
2023-02-11T04:13:54.822Z,1010.58
2023-02-11T04:14:54.732Z,1010.61
2023-02-11T04:15:55.002Z,1010.62
2023-02-11T04:16:55.526Z,1010.62
2023-02-11T04:17:54.708Z,1010.60
2023-02-11T04:18:54.777Z,1010.62
2023-02-11T04:19:54.724Z,1010.61
2023-02-11T04:20:54.729Z,1010.60
2023-02-11T04:21:54.634Z,1010.65
2023-02-11T04:22:54.633Z,1010.59
2023-02-11T04:23:54.667Z,1010.53
2023-02-11T04:24:54.579Z,1010.52
2023-02-11T04:25:54.574Z,1010.54
2023-02-11T04:26:54.651Z,1010.47
2023-02-11T04:27:54.751Z,1010.54
2023-02-11T04:28:54.617Z,1010.51
2023-02-11T04:29:54.558Z,1010.54
2023-02-11T04:30:54.655Z,1010.55
2023-02-11T04:31:54.662Z,1010.61
2023-02-11T04:32:54.557Z,1010.61
2023-02-11T04:33:54.574Z,1010.65
2023-02-11T04:34:54.504Z,1010.69
2023-02-11T04:35:54.544Z,1010.74
2023-02-11T04:36:54.523Z,1010.72
2023-02-11T04:37:54.510Z,1010.75
2023-02-11T04:38:54.594Z,1010.79
2023-02-11T04:39:54.492Z,1010.75
2023-02-11T04:40:54.447Z,1010.78
2023-02-11T04:41:54.516Z,1010.76
2023-02-11T04:42:54.454Z,1010.69
2023-02-11T04:43:54.389Z,1010.72
2023-02-11T04:44:54.479Z,1010.79
2023-02-11T04:45:54.400Z,1010.73
2023-02-11T04:46:54.382Z,1010.67
2023-02-11T04:47:54.476Z,1010.63
2023-02-11T04:48:54.513Z,1010.70
2023-02-11T04:49:54.350Z,1010.69
2023-02-11T04:50:54.503Z,1010.67
2023-02-11T04:51:54.347Z,1010.63
2023-02-11T04:52:54.407Z,1010.63
2023-02-11T04:53:54.528Z,1010.70
2023-02-11T04:54:54.333Z,1010.65
2023-02-11T04:55:54.413Z,1010.69
2023-02-11T04:56:54.275Z,1010.69
2023-02-11T04:57:54.500Z,1010.69
2023-02-11T04:58:54.235Z,1010.69
2023-02-11T04:59:54.254Z,1010.65
2023-02-11T05:00:54.326Z,1010.73
2023-02-11T05:01:54.273Z,1010.70
2023-02-11T05:02:54.411Z,1010.75
2023-02-11T05:03:54.336Z,1010.77
2023-02-11T05:04:54.241Z,1010.76
2023-02-11T05:05:54.183Z,1010.80
2023-02-11T05:06:55.271Z,1010.83
2023-02-11T05:07:54.212Z,1010.77
2023-02-11T05:08:54.191Z,1010.88
2023-02-11T05:09:54.164Z,1010.86
2023-02-11T05:10:54.126Z,1010.85
2023-02-11T05:11:54.301Z,1010.85
2023-02-11T05:12:55.889Z,1010.88
2023-02-11T05:13:55.171Z,1010.93
2023-02-11T05:14:54.140Z,1010.89
2023-02-11T05:15:54.126Z,1010.89
2023-02-11T05:16:54.304Z,1010.91
2023-02-11T05:17:54.041Z,1010.82
2023-02-11T05:18:54.076Z,1010.88
2023-02-11T05:19:54.047Z,1010.83
2023-02-11T05:20:54.045Z,1010.77
2023-02-11T05:22:02.653Z,1010.79
2023-02-11T05:22:54.060Z,1010.77
2023-02-11T05:23:54.060Z,1010.71
2023-02-11T05:24:53.988Z,1010.69
2023-02-11T05:25:54.016Z,1010.66
2023-02-11T05:26:54.007Z,1010.62
2023-02-11T05:27:54.071Z,1010.64
2023-02-11T05:28:54.061Z,1010.56
2023-02-11T05:29:53.910Z,1010.59
2023-02-11T05:30:55.068Z,1010.60
2023-02-11T05:31:53.982Z,1010.59
2023-02-11T05:32:53.951Z,1010.60
2023-02-11T05:33:53.912Z,1010.64
2023-02-11T05:34:54.062Z,1010.60
2023-02-11T05:35:54.051Z,1010.59
2023-02-11T05:36:53.901Z,1010.54
2023-02-11T05:37:54.018Z,1010.48
2023-02-11T05:38:53.818Z,1010.55
2023-02-11T05:39:53.890Z,1010.51
2023-02-11T05:40:53.880Z,1010.42
2023-02-11T05:41:53.923Z,1010.51
2023-02-11T05:42:53.869Z,1010.41
2023-02-11T05:43:53.917Z,1010.44
2023-02-11T05:44:53.989Z,1010.43
2023-02-11T05:45:54.090Z,1010.40
2023-02-11T05:46:53.853Z,1010.48
2023-02-11T05:47:53.780Z,1010.46
2023-02-11T05:48:53.767Z,1010.46
2023-02-11T05:49:53.844Z,1010.40
2023-02-11T05:50:53.799Z,1010.42
2023-02-11T05:51:53.819Z,1010.47
2023-02-11T05:52:53.715Z,1010.38
2023-02-11T05:53:54.735Z,1010.40
2023-02-11T05:54:53.670Z,1010.42
2023-02-11T05:55:53.898Z,1010.42
2023-02-11T05:56:53.696Z,1010.49
2023-02-11T05:57:53.721Z,1010.48
2023-02-11T05:58:53.646Z,1010.48
2023-02-11T05:59:53.730Z,1010.51
2023-02-11T06:00:53.676Z,1010.53
2023-02-11T06:01:53.565Z,1010.58
2023-02-11T06:02:53.768Z,1010.64
2023-02-11T06:03:53.874Z,1010.66
2023-02-11T06:04:53.584Z,1010.64
2023-02-11T06:05:53.613Z,1010.62
2023-02-11T06:06:54.594Z,1010.62
2023-02-11T06:07:53.747Z,1010.69
2023-02-11T06:08:53.554Z,1010.66
2023-02-11T06:09:53.619Z,1010.71
2023-02-11T06:10:53.568Z,1010.68
2023-02-11T06:11:53.553Z,1010.66
2023-02-11T06:12:53.526Z,1010.62
2023-02-11T06:13:53.637Z,1010.61
2023-02-11T06:14:53.664Z,1010.66
2023-02-11T06:15:53.702Z,1010.63
2023-02-11T06:16:53.517Z,1010.57
2023-02-11T06:17:53.511Z,1010.63
2023-02-11T06:18:53.637Z,1010.64
2023-02-11T06:37:24.929Z,1010.69
2023-02-11T06:38:26.171Z,1010.70
2023-02-11T06:39:26.112Z,1010.67
2023-02-11T06:40:26.082Z,1010.69
2023-02-11T06:41:26.150Z,1010.69
2023-02-11T06:42:26.160Z,1010.61
2023-02-11T06:43:26.095Z,1010.61
2023-02-11T06:44:26.090Z,1010.55
2023-02-11T06:45:26.063Z,1010.60
2023-02-11T06:46:26.055Z,1010.61
2023-02-11T06:47:25.995Z,1010.60
2023-02-11T06:48:26.019Z,1010.55
2023-02-11T06:49:26.039Z,1010.56
2023-02-11T06:50:25.993Z,1010.63
2023-02-11T06:51:26.025Z,1010.59
2023-02-11T06:52:25.999Z,1010.58
2023-02-11T06:53:26.082Z,1010.64
2023-02-11T06:54:25.999Z,1010.67
2023-02-11T06:55:25.996Z,1010.72
2023-02-11T06:56:26.129Z,1010.76
2023-02-11T06:57:26.002Z,1010.79
2023-02-11T06:58:25.969Z,1010.79
2023-02-11T06:59:25.922Z,1010.78
2023-02-11T07:00:26.099Z,1010.86
2023-02-11T07:01:25.954Z,1010.80
2023-02-11T07:02:25.960Z,1010.79
2023-02-11T07:03:26.041Z,1010.78
2023-02-11T07:04:25.956Z,1010.80
2023-02-11T07:05:25.929Z,1010.79
2023-02-11T07:06:26.041Z,1010.90
2023-02-11T07:07:25.998Z,1010.91
2023-02-11T07:08:26.080Z,1010.93
2023-02-11T07:09:25.810Z,1010.95
2023-02-11T07:10:25.896Z,1010.91
2023-02-11T07:11:25.888Z,1010.93
2023-02-11T07:12:25.813Z,1010.97
2023-02-11T07:13:25.794Z,1011.00
2023-02-11T07:14:25.942Z,1010.93
2023-02-11T07:15:25.782Z,1010.96
2023-02-11T07:16:25.805Z,1010.94
2023-02-11T07:17:25.746Z,1010.88
2023-02-11T07:18:25.757Z,1010.97
2023-02-11T07:19:25.715Z,1010.94
2023-02-11T07:20:25.724Z,1010.91
2023-02-11T07:21:26.079Z,1010.97
2023-02-11T07:22:25.747Z,1010.93
2023-02-11T07:23:26.796Z,1010.94
2023-02-11T07:24:25.764Z,1010.90
2023-02-11T07:25:25.669Z,1010.97
2023-02-11T07:26:26.647Z,1010.89
2023-02-11T07:27:25.723Z,1010.99
2023-02-11T07:28:25.766Z,1010.93
2023-02-11T07:29:25.599Z,1010.92
2023-02-11T07:30:25.605Z,1010.92
2023-02-11T07:31:25.751Z,1010.96
2023-02-11T07:32:26.584Z,1010.88
2023-02-11T07:33:25.620Z,1010.89
2023-02-11T07:34:25.676Z,1010.95
2023-02-11T07:35:25.610Z,1010.97
2023-02-11T07:36:25.728Z,1010.90
2023-02-11T07:37:25.760Z,1010.97
2023-02-11T07:38:25.783Z,1011.01
2023-02-11T07:39:25.843Z,1011.08
2023-02-11T07:40:25.601Z,1011.04
2023-02-11T07:41:26.268Z,1011.04
2023-02-11T07:42:33.177Z,1011.04
2023-02-11T07:43:26.679Z,1011.07
2023-02-11T07:44:27.001Z,1011.13
2023-02-11T07:45:27.674Z,1011.13
2023-02-11T07:46:26.243Z,1011.14
2023-02-11T07:47:25.942Z,1011.09
2023-02-11T07:48:30.122Z,1011.18
2023-02-11T07:49:29.697Z,1011.11
2023-02-11T07:50:25.623Z,1011.18
2023-02-11T07:51:25.627Z,1011.16
2023-02-11T07:52:27.384Z,1011.12
2023-02-11T07:53:26.598Z,1011.11
2023-02-11T07:54:26.588Z,1011.07
2023-02-11T07:55:37.802Z,1011.03
2023-02-11T07:56:32.159Z,1011.10
2023-02-11T07:57:30.839Z,1011.20
2023-02-11T07:58:27.468Z,1011.16
2023-02-11T07:59:25.747Z,1011.20
2023-02-11T08:00:33.475Z,1011.18
2023-02-11T08:01:26.868Z,1011.10
2023-02-11T08:02:26.782Z,1011.20
2023-02-11T08:03:25.450Z,1011.21
2023-02-11T08:04:25.535Z,1011.22
2023-02-11T08:05:26.222Z,1011.21
2023-02-11T08:06:25.533Z,1011.20
2023-02-11T08:07:25.539Z,1011.19
2023-02-11T08:08:27.015Z,1011.11
2023-02-11T08:09:27.664Z,1011.11
2023-02-11T08:10:26.539Z,1011.10
2023-02-11T08:11:26.401Z,1011.15
2023-02-11T08:12:26.134Z,1011.17
2023-02-11T08:13:25.301Z,1011.16
2023-02-11T08:14:25.493Z,1011.15
2023-02-11T08:15:27.677Z,1011.16
2023-02-11T08:16:25.536Z,1011.12
2023-02-11T08:17:25.628Z,1011.18
2023-02-11T08:18:25.257Z,1011.17
2023-02-11T08:19:25.208Z,1011.30
2023-02-11T08:20:25.595Z,1011.24
2023-02-11T08:21:25.389Z,1011.37
2023-02-11T08:22:25.164Z,1011.18
2023-02-11T08:23:25.328Z,1011.19
2023-02-11T08:24:25.180Z,1011.28
2023-02-11T08:25:25.086Z,1011.23
2023-02-11T08:26:25.470Z,1011.25
2023-02-11T08:27:25.490Z,1011.20
2023-02-11T08:28:26.750Z,1011.32
2023-02-11T08:29:25.161Z,1011.29
2023-02-11T08:30:27.407Z,1011.27
2023-02-11T08:31:26.172Z,1011.31
2023-02-11T08:32:25.099Z,1011.36
2023-02-11T08:33:25.669Z,1011.32
2023-02-11T08:34:25.014Z,1011.32
2023-02-11T08:35:25.010Z,1011.33
2023-02-11T08:36:25.289Z,1011.36
2023-02-11T08:37:25.085Z,1011.33
2023-02-11T08:38:24.985Z,1011.41
2023-02-11T08:39:25.026Z,1011.37
2023-02-11T08:40:25.041Z,1011.34
2023-02-11T08:41:24.918Z,1011.26
2023-02-11T08:42:24.888Z,1011.29
2023-02-11T08:43:24.886Z,1011.30
2023-02-11T08:44:25.922Z,1011.32
2023-02-11T08:45:24.896Z,1011.32
2023-02-11T08:46:24.865Z,1011.33
2023-02-11T08:47:24.908Z,1011.26
2023-02-11T08:48:24.850Z,1011.32
2023-02-11T08:49:24.903Z,1011.32
2023-02-11T08:50:24.818Z,1011.28
2023-02-11T08:51:24.802Z,1011.27
2023-02-11T08:52:24.830Z,1011.26
2023-02-11T08:53:24.786Z,1011.30
2023-02-11T08:54:24.953Z,1011.25
2023-02-11T08:55:24.786Z,1011.32
2023-02-11T08:56:24.799Z,1011.30
2023-02-11T08:57:25.179Z,1011.32
2023-02-11T08:58:24.801Z,1011.35
2023-02-11T08:59:25.741Z,1011.33
2023-02-11T09:00:24.745Z,1011.27
2023-02-11T09:01:25.041Z,1011.28
2023-02-11T09:02:25.151Z,1011.15
2023-02-11T09:03:25.453Z,1011.28
2023-02-11T09:04:24.682Z,1011.30
2023-02-11T09:05:24.662Z,1011.17
2023-02-11T09:06:24.913Z,1011.24
2023-02-11T09:07:24.855Z,1011.27
2023-02-11T09:08:24.934Z,1011.29
2023-02-11T09:09:24.644Z,1011.21
2023-02-11T09:10:33.626Z,1011.28
2023-02-11T09:11:36.284Z,1011.32
2023-02-11T09:12:35.701Z,1011.34
2023-02-11T09:13:36.705Z,1011.34
2023-02-11T09:14:25.593Z,1011.31
2023-02-11T09:15:24.577Z,1011.26
2023-02-11T09:16:24.672Z,1011.37
2023-02-11T09:17:24.593Z,1011.41
2023-02-11T09:18:24.564Z,1011.38
2023-02-11T09:19:24.539Z,1011.41
2023-02-11T09:20:24.482Z,1011.36
2023-02-11T09:21:24.514Z,1011.39
2023-02-11T09:22:24.540Z,1011.37
2023-02-11T09:23:24.510Z,1011.37
2023-02-11T09:24:24.516Z,1011.37
2023-02-11T09:25:24.454Z,1011.37
2023-02-11T09:26:24.523Z,1011.35
2023-02-11T09:27:25.434Z,1011.39
2023-02-11T09:28:24.472Z,1011.42
2023-02-11T09:29:24.422Z,1011.44
2023-02-11T09:30:24.350Z,1011.40
2023-02-11T09:31:24.442Z,1011.44
2023-02-11T09:32:24.821Z,1011.39
2023-02-11T09:33:24.490Z,1011.39
2023-02-11T09:34:24.482Z,1011.43
2023-02-11T09:35:24.666Z,1011.44
2023-02-11T09:36:24.315Z,1011.38
2023-02-11T09:37:24.447Z,1011.42
2023-02-11T09:38:24.340Z,1011.38
2023-02-11T09:39:24.314Z,1011.41
2023-02-11T09:40:24.301Z,1011.47
2023-02-11T09:41:24.317Z,1011.43
2023-02-11T09:42:24.317Z,1011.36
2023-02-11T09:43:24.311Z,1011.41
2023-02-11T09:44:24.381Z,1011.43
2023-02-11T09:45:24.357Z,1011.38
2023-02-11T09:46:24.381Z,1011.38
2023-02-11T09:47:24.309Z,1011.41
2023-02-11T09:48:25.333Z,1011.36
2023-02-11T09:49:24.400Z,1011.36
2023-02-11T09:50:24.804Z,1011.35
2023-02-11T09:51:24.239Z,1011.34
2023-02-11T09:52:24.311Z,1011.33
2023-02-11T09:53:24.365Z,1011.34
2023-02-11T09:54:24.247Z,1011.30
2023-02-11T09:55:24.190Z,1011.31
2023-02-11T09:56:24.274Z,1011.26
2023-02-11T09:57:28.917Z,1011.29
2023-02-11T09:58:25.137Z,1011.26
2023-02-11T09:59:24.281Z,1011.28
2023-02-11T10:00:24.158Z,1011.23
2023-02-11T10:01:24.252Z,1011.25
2023-02-11T10:02:24.174Z,1011.25
2023-02-11T10:03:24.485Z,1011.33
2023-02-11T10:04:24.250Z,1011.17
2023-02-11T10:05:24.305Z,1011.25
2023-02-11T10:06:37.688Z,1011.29
2023-02-11T10:07:25.207Z,1011.25
2023-02-11T10:08:56.434Z,1011.30
2023-02-11T10:09:24.112Z,1011.31
2023-02-11T10:10:24.082Z,1011.29
2023-02-11T10:11:31.652Z,1011.27
2023-02-11T10:12:26.050Z,1011.32
2023-02-11T10:13:23.928Z,1011.24
2023-02-11T10:14:24.032Z,1011.28
2023-02-11T10:15:24.008Z,1011.34
2023-02-11T10:16:23.919Z,1011.33
2023-02-11T10:17:23.925Z,1011.31
2023-02-11T10:18:23.888Z,1011.34
2023-02-11T10:19:23.956Z,1011.35
2023-02-11T10:20:23.885Z,1011.39
2023-02-11T10:21:23.890Z,1011.40
2023-02-11T10:22:23.863Z,1011.40
2023-02-11T10:23:23.838Z,1011.48
2023-02-11T10:24:23.934Z,1011.45
2023-02-11T10:25:23.823Z,1011.49
2023-02-11T10:26:23.880Z,1011.49
2023-02-11T10:27:23.777Z,1011.48
2023-02-11T10:28:23.882Z,1011.50
2023-02-11T10:29:23.777Z,1011.54
2023-02-11T10:30:23.787Z,1011.54
2023-02-11T10:31:23.950Z,1011.56
2023-02-11T10:32:23.765Z,1011.57
2023-02-11T10:33:23.751Z,1011.57
2023-02-11T10:34:23.762Z,1011.56
2023-02-11T10:35:23.712Z,1011.57
2023-02-11T10:36:23.733Z,1011.57
2023-02-11T10:37:23.710Z,1011.52
2023-02-11T10:38:23.723Z,1011.56
2023-02-11T10:39:23.760Z,1011.61
2023-02-11T10:40:23.720Z,1011.66
2023-02-11T10:41:23.666Z,1011.62
2023-02-11T10:42:24.109Z,1011.57
2023-02-11T10:43:23.633Z,1011.60
2023-02-11T10:44:23.644Z,1011.57
2023-02-11T10:45:24.548Z,1011.66
2023-02-11T10:46:23.651Z,1011.61
2023-02-11T10:47:23.587Z,1011.66
2023-02-11T10:48:23.621Z,1011.68
2023-02-11T10:49:23.641Z,1011.65
2023-02-11T10:50:23.646Z,1011.70
2023-02-11T10:51:23.589Z,1011.61
2023-02-11T10:52:23.614Z,1011.60
2023-02-11T10:53:23.592Z,1011.63
2023-02-11T10:54:23.684Z,1011.63
2023-02-11T10:55:23.688Z,1011.58
2023-02-11T10:56:23.538Z,1011.59
2023-02-11T10:57:23.511Z,1011.54
2023-02-11T10:58:23.502Z,1011.54
2023-02-11T10:59:24.117Z,1011.56
2023-02-11T11:00:23.492Z,1011.58
2023-02-11T11:01:25.056Z,1011.51
2023-02-11T11:02:23.537Z,1011.62
2023-02-11T11:03:23.453Z,1011.49
2023-02-11T11:04:23.506Z,1011.54
2023-02-11T11:05:23.419Z,1011.54
2023-02-11T11:06:23.439Z,1011.50
2023-02-11T11:07:23.444Z,1011.53
2023-02-11T11:08:23.515Z,1011.62
2023-02-11T11:09:23.449Z,1011.58
2023-02-11T11:10:23.449Z,1011.56
2023-02-11T11:11:23.407Z,1011.51
2023-02-11T11:12:23.386Z,1011.53
2023-02-11T11:13:23.377Z,1011.60
2023-02-11T11:14:23.314Z,1011.61
2023-02-11T11:15:23.476Z,1011.59
2023-02-11T11:16:23.475Z,1011.60
2023-02-11T11:17:23.517Z,1011.64
2023-02-11T11:18:23.701Z,1011.59
2023-02-11T11:19:23.295Z,1011.59
2023-02-11T11:20:23.286Z,1011.57
2023-02-11T11:21:23.343Z,1011.59
2023-02-11T11:22:23.278Z,1011.55
2023-02-11T11:23:23.253Z,1011.60
2023-02-11T11:24:25.505Z,1011.54
2023-02-11T11:25:23.261Z,1011.48
2023-02-11T11:26:23.285Z,1011.57
2023-02-11T11:27:23.193Z,1011.53
2023-02-11T11:28:23.275Z,1011.46
2023-02-11T11:29:23.208Z,1011.55
2023-02-11T11:30:23.239Z,1011.57
2023-02-11T11:31:23.328Z,1011.51
2023-02-11T11:32:23.136Z,1011.53
2023-02-11T11:33:23.148Z,1011.51
2023-02-11T11:34:23.141Z,1011.54
2023-02-11T11:35:23.238Z,1011.50
2023-02-11T11:36:24.075Z,1011.55
2023-02-11T11:37:23.145Z,1011.52
2023-02-11T11:38:23.108Z,1011.49
2023-02-11T11:39:23.091Z,1011.54
2023-02-11T11:40:23.203Z,1011.55
2023-02-11T11:41:23.048Z,1011.48
2023-02-11T11:42:23.073Z,1011.51
2023-02-11T11:43:23.485Z,1011.55
2023-02-11T11:44:24.035Z,1011.50
2023-02-11T11:45:23.150Z,1011.49
2023-02-11T11:46:23.052Z,1011.55
2023-02-11T11:47:23.002Z,1011.51
2023-02-11T11:48:23.000Z,1011.51
2023-02-11T11:49:23.089Z,1011.52
2023-02-11T11:50:23.011Z,1011.46
2023-02-11T11:51:23.010Z,1011.50
2023-02-11T11:52:23.668Z,1011.54
2023-02-11T11:53:22.939Z,1011.45
2023-02-11T11:54:22.930Z,1011.47
2023-02-11T11:55:22.933Z,1011.41
2023-02-11T11:56:22.909Z,1011.49
2023-02-11T11:57:22.915Z,1011.38
2023-02-11T11:58:22.892Z,1011.41
2023-02-11T11:59:22.967Z,1011.39
2023-02-11T12:00:22.970Z,1011.37
2023-02-11T12:01:23.003Z,1011.29
2023-02-11T12:02:22.884Z,1011.26
2023-02-11T12:03:22.868Z,1011.20
2023-02-11T12:04:22.850Z,1011.19
2023-02-11T12:05:22.894Z,1011.25
2023-02-11T12:06:22.837Z,1011.23
2023-02-11T12:07:25.750Z,1011.35
2023-02-11T12:08:23.783Z,1011.30
2023-02-11T12:09:22.784Z,1011.33
2023-02-11T12:10:22.799Z,1011.38
2023-02-11T12:11:22.761Z,1011.36
2023-02-11T12:12:22.746Z,1011.36
2023-02-11T12:13:22.752Z,1011.33
2023-02-11T12:14:22.736Z,1011.36
2023-02-11T12:15:23.150Z,1011.33
2023-02-11T12:16:22.768Z,1011.31
2023-02-11T12:17:22.703Z,1011.33
2023-02-11T12:18:22.672Z,1011.25
2023-02-11T12:19:22.675Z,1011.28
2023-02-11T12:20:22.704Z,1011.32
2023-02-11T12:21:22.632Z,1011.33
2023-02-11T12:22:23.557Z,1011.31
2023-02-11T12:23:22.638Z,1011.26
2023-02-11T12:24:22.624Z,1011.27
2023-02-11T12:25:22.615Z,1011.25
2023-02-11T12:26:23.860Z,1011.21
2023-02-11T12:27:22.581Z,1011.27
2023-02-11T12:28:22.609Z,1011.27
2023-02-11T12:29:23.561Z,1011.26
2023-02-11T12:30:22.568Z,1011.31
2023-02-11T12:31:22.796Z,1011.30
2023-02-11T12:32:22.511Z,1011.29
2023-02-11T12:33:22.591Z,1011.25
2023-02-11T12:34:22.623Z,1011.30
2023-02-11T12:35:22.524Z,1011.28
2023-02-11T12:36:22.515Z,1011.34
2023-02-11T12:37:22.508Z,1011.33
2023-02-11T12:38:23.052Z,1011.24
2023-02-11T12:39:22.522Z,1011.21
2023-02-11T12:40:22.678Z,1011.25
2023-02-11T12:41:22.433Z,1011.27
2023-02-11T12:42:22.431Z,1011.29
2023-02-11T12:43:22.406Z,1011.32
2023-02-11T12:44:22.421Z,1011.19
2023-02-11T12:45:22.454Z,1011.23
2023-02-11T12:46:23.132Z,1011.21
2023-02-11T12:47:22.414Z,1011.19
2023-02-11T12:48:22.979Z,1011.18
2023-02-11T12:49:22.371Z,1011.19
2023-02-11T12:50:22.579Z,1011.13
2023-02-11T12:51:22.390Z,1011.17
2023-02-11T12:52:22.359Z,1011.18
2023-02-11T12:53:22.330Z,1011.16